createdAt,value
2022-12-13T00:01:47.211Z,77.68
2022-12-13T00:04:15.522Z,77.41
2022-12-13T00:06:45.394Z,77.16
2022-12-13T00:09:15.081Z,76.38
2022-12-13T00:11:43.337Z,77.32
2022-12-13T00:14:11.648Z,77.44
2022-12-13T00:16:39.580Z,76.72
2022-12-13T00:19:07.987Z,77.63
2022-12-13T00:21:36.184Z,77.89
2022-12-13T00:24:08.281Z,77.43
2022-12-13T00:26:36.608Z,77.67
2022-12-13T00:29:07.324Z,76.85
2022-12-13T00:31:59.270Z,76.96
2022-12-13T00:34:24.657Z,77.56
2022-12-13T00:36:54.122Z,77.68
2022-12-13T00:39:23.564Z,77.40
2022-12-13T00:41:52.147Z,77.84
2022-12-13T00:44:20.416Z,77.48
2022-12-13T00:46:51.709Z,77.15
2022-12-13T00:49:20.318Z,78.30
2022-12-13T00:51:49.633Z,77.96
2022-12-13T00:54:17.708Z,77.84
2022-12-13T00:56:46.969Z,77.15
2022-12-13T00:59:16.157Z,77.89
2022-12-13T01:01:44.480Z,77.74
2022-12-13T01:04:13.241Z,77.96
2022-12-13T01:06:43.239Z,78.30
2022-12-13T01:09:17.114Z,78.08
2022-12-13T01:11:46.978Z,78.26
2022-12-13T01:14:15.346Z,78.04
2022-12-13T01:16:43.547Z,77.89
2022-12-13T01:19:11.445Z,77.69
2022-12-13T01:21:39.398Z,76.75
2022-12-13T01:24:08.369Z,77.01
2022-12-13T01:26:36.419Z,78.07
2022-12-13T01:29:05.930Z,76.47
2022-12-13T01:31:34.076Z,77.93
2022-12-13T01:34:10.680Z,77.43
2022-12-13T01:36:39.337Z,77.77
2022-12-13T01:39:07.763Z,78.16
2022-12-13T01:41:43.438Z,77.43
2022-12-13T01:44:44.476Z,77.04
2022-12-13T01:47:17.437Z,77.09
2022-12-13T01:49:45.780Z,77.20
2022-12-13T01:52:16.359Z,77.20
2022-12-13T01:54:50.025Z,77.66
2022-12-13T01:57:21.099Z,77.08
2022-12-13T01:59:51.464Z,77.47
2022-12-13T02:02:20.980Z,77.34
2022-12-13T02:04:54.886Z,77.23
2022-12-13T02:07:27.710Z,77.73
2022-12-13T02:09:58.420Z,77.65
2022-12-13T02:12:30.342Z,77.21
2022-12-13T02:15:00.391Z,77.78
2022-12-13T02:17:44.954Z,76.24
2022-12-13T02:20:49.965Z,77.39
2022-12-13T02:23:34.646Z,77.28
2022-12-13T02:26:42.514Z,76.91
2022-12-13T02:29:34.639Z,76.96
2022-12-13T02:32:11.415Z,76.19
2022-12-13T02:34:45.766Z,76.58
2022-12-13T02:37:21.767Z,76.86
2022-12-13T02:39:55.223Z,76.87
2022-12-13T02:42:27.597Z,76.73
2022-12-13T02:45:01.188Z,75.95
2022-12-13T02:47:33.203Z,76.59
2022-12-13T02:50:05.209Z,76.92
2022-12-13T02:52:34.001Z,76.82
2022-12-13T02:55:08.225Z,76.79
2022-12-13T02:57:38.463Z,75.92
2022-12-13T03:00:09.474Z,76.20
2022-12-13T03:02:46.786Z,76.54
2022-12-13T03:05:43.534Z,75.96
2022-12-13T03:08:23.660Z,76.70
2022-12-13T03:11:04.523Z,76.67
2022-12-13T03:13:38.674Z,76.37
2022-12-13T03:16:14.447Z,76.48
2022-12-13T03:18:54.219Z,76.37
2022-12-13T03:21:23.493Z,76.33
2022-12-13T03:23:51.862Z,75.80
2022-12-13T03:26:22.313Z,75.54
2022-12-13T03:28:50.205Z,76.07
2022-12-13T03:31:18.460Z,75.92
2022-12-13T03:33:47.064Z,75.23
2022-12-13T03:36:18.839Z,75.56
2022-12-13T03:38:47.480Z,75.35
2022-12-13T03:41:20.279Z,76.02
2022-12-13T03:43:48.424Z,75.57
2022-12-13T03:46:16.646Z,75.35
2022-12-13T03:48:44.551Z,76.62
2022-12-13T03:51:12.495Z,75.47
2022-12-13T03:53:41.748Z,76.33
2022-12-13T03:56:09.640Z,76.44
2022-12-13T03:58:38.506Z,76.91
2022-12-13T04:01:08.038Z,77.01
2022-12-13T04:03:36.969Z,76.59
2022-12-13T04:06:05.930Z,76.34
2022-12-13T04:08:34.150Z,76.80
2022-12-13T04:11:24.699Z,77.03
2022-12-13T04:13:52.595Z,77.24
2022-12-13T04:16:20.536Z,77.34
2022-12-13T04:18:48.594Z,76.61
2022-12-13T04:21:16.761Z,76.39
2022-12-13T04:23:44.737Z,77.17
2022-12-13T04:26:14.216Z,76.61
2022-12-13T04:28:42.253Z,75.87
2022-12-13T04:31:10.303Z,75.55
2022-12-13T04:33:38.381Z,75.95
2022-12-13T04:36:06.842Z,76.03
2022-12-13T04:38:34.764Z,75.39
2022-12-13T04:41:07.282Z,75.64
2022-12-13T04:43:36.737Z,76.53
2022-12-13T04:46:04.802Z,75.34
2022-12-13T04:48:33.450Z,75.75
2022-12-13T04:51:02.283Z,76.17
2022-12-13T04:53:30.524Z,76.08
2022-12-13T04:55:58.517Z,75.72
2022-12-13T04:58:26.492Z,75.35
2022-12-13T05:00:55.790Z,76.19
2022-12-13T05:03:24.238Z,75.44
2022-12-13T05:05:52.144Z,75.79
2022-12-13T05:08:20.105Z,77.05
2022-12-13T05:10:48.040Z,76.61
2022-12-13T05:13:16.046Z,75.71
2022-12-13T05:15:43.976Z,76.52
2022-12-13T05:18:13.313Z,75.26
2022-12-13T05:20:41.216Z,76.32
2022-12-13T05:23:10.022Z,76.19
2022-12-13T05:25:37.917Z,76.47
2022-12-13T05:28:26.860Z,75.91
2022-12-13T05:30:55.415Z,76.25
2022-12-13T05:33:39.050Z,76.04
2022-12-13T05:36:07.769Z,75.88
2022-12-13T05:38:35.972Z,75.96
2022-12-13T05:41:03.878Z,75.75
2022-12-13T05:43:42.402Z,76.20
2022-12-13T05:46:12.457Z,75.39
2022-12-13T05:48:42.035Z,75.43
2022-12-13T05:51:12.032Z,75.56
2022-12-13T05:53:40.968Z,75.69
2022-12-13T05:56:10.452Z,75.10
2022-12-13T05:58:41.156Z,75.76
2022-12-13T06:01:10.958Z,76.10
2022-12-13T06:03:39.050Z,75.77
2022-12-13T06:06:10.509Z,75.43
2022-12-13T06:08:38.719Z,76.13
2022-12-13T06:11:11.657Z,75.52
2022-12-13T06:13:43.239Z,75.16
2022-12-13T06:16:21.863Z,75.98
2022-12-13T06:18:54.454Z,76.60
2022-12-13T06:21:31.184Z,77.23
2022-12-13T06:24:11.543Z,77.29
2022-12-13T06:26:39.347Z,76.60
2022-12-13T06:29:07.333Z,77.01
2022-12-13T06:31:35.201Z,76.86
2022-12-13T06:34:14.925Z,75.79
2022-12-13T06:36:44.673Z,75.53
2022-12-13T06:39:12.583Z,75.68
2022-12-13T06:41:40.607Z,76.24
2022-12-13T06:44:08.451Z,75.41
2022-12-13T06:46:36.406Z,75.85
2022-12-13T06:49:08.767Z,75.71
2022-12-13T06:51:36.549Z,76.80
2022-12-13T06:54:05.706Z,76.41
2022-12-13T06:56:33.830Z,76.60
2022-12-13T06:59:02.399Z,76.72
2022-12-13T07:01:37.561Z,76.85
2022-12-13T07:04:29.012Z,76.79
2022-12-13T07:06:54.761Z,77.17
2022-12-13T07:09:24.030Z,76.06
2022-12-13T07:11:52.597Z,76.72
2022-12-13T07:14:20.853Z,76.86
2022-12-13T07:16:48.723Z,76.70
2022-12-13T07:19:23.419Z,76.71
2022-12-13T07:21:52.715Z,77.01
2022-12-13T07:24:20.777Z,77.09
2022-12-13T07:26:50.014Z,76.74
2022-12-13T07:29:22.689Z,76.92
2022-12-13T07:31:50.819Z,77.18
2022-12-13T07:34:18.755Z,76.59
2022-12-13T07:36:46.721Z,76.48
2022-12-13T07:39:14.554Z,76.48
2022-12-13T07:41:42.416Z,77.00
2022-12-13T07:44:11.564Z,76.96
2022-12-13T07:46:39.433Z,76.76
2022-12-13T07:49:07.474Z,76.47
2022-12-13T07:51:35.578Z,76.77
2022-12-13T07:54:06.791Z,77.39
2022-12-13T07:56:35.359Z,77.76
2022-12-13T07:59:03.513Z,77.35
2022-12-13T08:01:34.543Z,77.52
2022-12-13T08:04:02.857Z,78.00
2022-12-13T08:06:31.091Z,77.31
2022-12-13T08:08:59.197Z,78.68
2022-12-13T08:11:27.133Z,78.27
2022-12-13T08:13:55.056Z,77.79
2022-12-13T08:16:26.383Z,77.51
2022-12-13T08:19:01.161Z,77.79
2022-12-13T08:24:23.475Z,78.58
2022-12-13T08:26:51.492Z,78.79
2022-12-13T08:29:22.914Z,78.31
2022-12-13T08:32:02.130Z,79.13
2022-12-13T08:34:32.644Z,78.72
2022-12-13T08:37:02.417Z,79.05
2022-12-13T08:39:34.467Z,79.13
2022-12-13T08:42:16.415Z,79.00
2022-12-13T08:44:46.837Z,79.18
2022-12-13T08:47:22.642Z,80.23
2022-12-13T08:49:55.283Z,80.18
2022-12-13T08:52:24.073Z,80.49
2022-12-13T08:54:52.522Z,80.42
2022-12-13T08:57:20.566Z,79.44
2022-12-13T08:59:48.419Z,79.28
2022-12-13T09:02:17.451Z,80.65
2022-12-13T09:04:45.393Z,80.08
2022-12-13T09:07:14.601Z,80.21
2022-12-13T09:09:42.522Z,79.55
2022-12-13T09:12:29.651Z,79.55
2022-12-13T09:15:01.369Z,80.84
2022-12-13T09:17:36.448Z,82.08
2022-12-13T09:20:10.327Z,81.69
2022-12-13T09:23:01.326Z,81.36
2022-12-13T09:25:36.559Z,80.43
2022-12-13T09:28:07.906Z,79.62
2022-12-13T09:30:35.994Z,80.39
2022-12-13T09:33:18.005Z,79.67
2022-12-13T09:35:53.782Z,79.68
2022-12-13T09:38:23.321Z,79.85
2022-12-13T09:40:58.785Z,79.85
2022-12-13T09:43:33.109Z,79.29
2022-12-13T09:46:22.119Z,78.79
2022-12-13T09:48:53.014Z,78.65
2022-12-13T09:51:44.114Z,78.00
2022-12-13T09:54:20.467Z,77.32
2022-12-13T09:56:50.887Z,78.04
2022-12-13T09:59:22.531Z,77.54
2022-12-13T10:01:50.413Z,77.54
2022-12-13T10:04:19.361Z,76.48
2022-12-13T10:06:47.397Z,76.03
2022-12-13T10:09:15.521Z,75.94
2022-12-13T10:11:53.116Z,75.80
2022-12-13T10:14:27.674Z,75.02
2022-12-13T10:16:59.042Z,74.03
2022-12-13T10:19:34.872Z,73.61
2022-12-13T10:22:05.809Z,72.93
2022-12-13T10:24:50.525Z,73.51
2022-12-13T10:27:21.728Z,73.73
2022-12-13T10:30:10.667Z,73.53
2022-12-13T10:32:47.129Z,72.53
2022-12-13T10:35:24.393Z,73.00
2022-12-13T10:37:53.003Z,73.01
2022-12-13T10:40:32.058Z,72.30
2022-12-13T10:43:14.181Z,72.94
2022-12-13T10:45:43.185Z,72.21
2022-12-13T10:48:21.319Z,72.48
2022-12-13T10:51:00.430Z,72.80
2022-12-13T10:53:32.404Z,68.86
2022-12-13T10:56:02.129Z,70.13
2022-12-13T10:58:41.046Z,70.63
2022-12-13T11:01:14.948Z,69.80
2022-12-13T11:03:42.920Z,69.75
2022-12-13T11:06:15.000Z,70.19
2022-12-13T11:08:43.100Z,70.10
2022-12-13T11:11:13.020Z,69.32
2022-12-13T11:13:46.051Z,69.40
2022-12-13T11:16:25.003Z,68.86
2022-12-13T11:18:56.477Z,69.00
2022-12-13T11:21:27.204Z,68.46
2022-12-13T11:23:57.470Z,68.84
2022-12-13T11:26:31.967Z,67.21
2022-12-13T11:29:19.375Z,67.96
2022-12-13T11:31:55.899Z,67.56
2022-12-13T11:34:33.740Z,67.04
2022-12-13T11:37:12.212Z,66.96
2022-12-13T11:39:44.435Z,65.27
2022-12-13T11:42:23.497Z,65.39
2022-12-13T11:45:01.828Z,65.77
2022-12-13T11:47:36.751Z,66.25
2022-12-13T11:50:16.465Z,65.98
2022-12-13T11:52:53.442Z,65.48
2022-12-13T11:55:25.481Z,65.55
2022-12-13T11:57:59.703Z,64.78
2022-12-13T12:00:37.945Z,63.97
2022-12-13T12:03:18.386Z,64.48
2022-12-13T12:05:56.064Z,64.57
2022-12-13T12:08:34.946Z,64.48
2022-12-13T12:11:13.204Z,64.06
2022-12-13T12:13:51.236Z,64.30
2022-12-13T12:16:30.667Z,63.90
2022-12-13T12:19:01.345Z,64.69
2022-12-13T12:22:12.345Z,63.99
2022-12-13T12:24:33.534Z,64.43
2022-12-13T12:27:22.237Z,63.76
2022-12-13T12:30:03.867Z,62.86
2022-12-13T12:32:42.842Z,63.29
2022-12-13T12:35:26.051Z,63.60
2022-12-13T12:38:00.914Z,63.69
2022-12-13T12:41:15.816Z,63.11
2022-12-13T12:43:42.098Z,64.13
2022-12-13T12:46:26.557Z,62.71
2022-12-13T12:49:17.957Z,62.84
2022-12-13T12:51:51.947Z,62.19
2022-12-13T12:54:33.950Z,63.17
2022-12-13T12:57:10.959Z,62.39
2022-12-13T12:59:49.248Z,62.73
2022-12-13T13:02:23.029Z,62.03
2022-12-13T13:04:59.105Z,61.32
2022-12-13T13:07:32.496Z,61.64
2022-12-13T13:10:25.607Z,61.98
2022-12-13T13:13:11.647Z,60.78
2022-12-13T13:16:06.060Z,60.38
2022-12-13T13:18:51.474Z,60.70
2022-12-13T13:21:46.038Z,60.65
2022-12-13T13:24:25.688Z,60.59
2022-12-13T13:26:55.882Z,60.95
2022-12-13T13:29:33.303Z,60.18
2022-12-13T13:32:05.156Z,60.50
2022-12-13T13:34:36.300Z,60.29
2022-12-13T13:37:23.001Z,60.56
2022-12-13T13:40:00.777Z,59.50
2022-12-13T13:42:29.850Z,59.25
2022-12-13T13:45:20.044Z,58.72
2022-12-13T13:47:55.710Z,59.11
2022-12-13T13:50:50.138Z,59.21
2022-12-13T13:53:51.513Z,58.15
2022-12-13T13:56:36.225Z,59.33
2022-12-13T13:59:58.913Z,59.28
2022-12-13T14:02:58.581Z,57.64
2022-12-13T14:06:12.695Z,57.61
2022-12-13T14:09:00.199Z,57.06
2022-12-13T14:12:04.712Z,57.63
2022-12-13T14:15:01.425Z,56.25
2022-12-13T14:18:02.722Z,56.85
2022-12-13T14:20:46.711Z,56.80
2022-12-13T14:23:30.232Z,56.38
2022-12-13T14:26:11.779Z,56.69
2022-12-13T14:28:48.652Z,56.97
2022-12-13T14:31:22.491Z,56.34
2022-12-13T14:33:52.985Z,56.00
2022-12-13T14:36:29.031Z,56.45
2022-12-13T14:39:05.111Z,56.22
2022-12-13T14:41:33.993Z,56.32
2022-12-13T14:44:17.369Z,56.39
2022-12-13T14:46:58.243Z,56.66
2022-12-13T14:49:28.569Z,58.19
2022-12-13T14:52:01.701Z,57.34
2022-12-13T14:54:37.062Z,57.51
2022-12-13T14:57:05.940Z,57.90
2022-12-13T14:59:34.392Z,57.61
2022-12-13T15:02:06.392Z,56.53
2022-12-13T15:04:36.085Z,57.58
2022-12-13T15:07:07.909Z,58.06
2022-12-13T15:09:38.799Z,57.50
2022-12-13T15:12:24.914Z,57.53
2022-12-13T15:14:59.668Z,57.29
2022-12-13T15:17:34.940Z,57.56
2022-12-13T15:20:24.910Z,56.70
2022-12-13T15:23:15.708Z,56.77
2022-12-13T15:26:00.234Z,57.62
2022-12-13T15:28:30.347Z,58.29
2022-12-13T15:31:00.453Z,59.65
2022-12-13T15:33:35.460Z,60.25
2022-12-13T15:36:10.800Z,60.15
2022-12-13T15:38:41.618Z,61.29
2022-12-13T15:41:18.147Z,61.49
2022-12-13T15:43:49.705Z,62.27
2022-12-13T15:46:25.873Z,63.07
2022-12-13T15:48:57.346Z,62.92
2022-12-13T15:51:29.609Z,62.98
2022-12-13T15:54:04.864Z,63.73
2022-12-13T15:56:34.521Z,63.56
2022-12-13T15:59:04.437Z,63.60
2022-12-13T16:01:35.399Z,63.95
2022-12-13T16:04:06.219Z,63.86
2022-12-13T16:06:34.967Z,63.31
2022-12-13T16:09:05.309Z,64.03
2022-12-13T16:11:36.481Z,63.46
2022-12-13T16:14:38.089Z,64.03
2022-12-13T16:17:14.448Z,64.37
2022-12-13T16:19:44.669Z,63.82
2022-12-13T16:22:12.623Z,63.97
2022-12-13T16:24:40.527Z,63.88
2022-12-13T16:27:10.720Z,63.64
2022-12-13T16:29:38.606Z,64.53
2022-12-13T16:32:08.133Z,64.06
2022-12-13T16:34:37.052Z,64.00
2022-12-13T16:37:09.025Z,63.96
2022-12-13T16:39:54.507Z,64.47
2022-12-13T16:42:25.834Z,64.78
2022-12-13T16:45:17.740Z,64.10
2022-12-13T16:47:48.494Z,64.38
2022-12-13T16:50:19.222Z,64.39
2022-12-13T16:52:48.951Z,64.72
2022-12-13T16:55:17.345Z,64.32
2022-12-13T16:57:56.399Z,64.08
2022-12-13T17:00:24.402Z,64.05
2022-12-13T17:02:52.436Z,63.85
2022-12-13T17:05:20.672Z,64.35
2022-12-13T17:07:49.964Z,65.02
2022-12-13T17:10:19.397Z,64.40
2022-12-13T17:12:47.532Z,64.86
2022-12-13T17:15:17.219Z,63.88
2022-12-13T17:17:46.517Z,64.31
2022-12-13T17:20:16.966Z,64.26
2022-12-13T17:22:46.056Z,63.91
2022-12-13T17:25:15.635Z,63.59
2022-12-13T17:27:43.516Z,63.72
2022-12-13T17:30:15.529Z,63.02
2022-12-13T17:32:43.324Z,63.49
2022-12-13T17:35:17.862Z,63.28
2022-12-13T17:37:46.411Z,63.53
2022-12-13T17:40:16.686Z,63.37
2022-12-13T17:42:45.444Z,62.53
2022-12-13T17:45:13.216Z,61.94
2022-12-13T17:47:41.120Z,62.52
2022-12-13T17:50:09.950Z,62.50
2022-12-13T17:52:39.072Z,62.37
2022-12-13T17:55:07.824Z,62.51
2022-12-13T17:57:37.246Z,63.06
2022-12-13T18:00:06.287Z,62.77
2022-12-13T18:02:40.907Z,62.38
2022-12-13T18:05:17.594Z,62.70
2022-12-13T18:07:50.858Z,62.66
2022-12-13T18:10:18.989Z,62.66
2022-12-13T18:12:48.155Z,63.24
2022-12-13T18:15:15.980Z,63.04
2022-12-13T18:18:10.230Z,63.58
2022-12-13T18:20:31.706Z,63.22
2022-12-13T18:22:59.617Z,63.99
2022-12-13T18:25:27.563Z,63.58
2022-12-13T18:28:01.035Z,63.78
2022-12-13T18:30:31.087Z,64.96
2022-12-13T18:32:59.026Z,67.51
2022-12-13T18:35:26.873Z,66.20
2022-12-13T18:37:54.833Z,65.39
2022-12-13T18:40:22.707Z,64.88
2022-12-13T18:42:50.588Z,64.97
2022-12-13T18:45:20.177Z,65.65
2022-12-13T18:47:48.035Z,65.77
2022-12-13T18:50:16.131Z,66.14
2022-12-13T18:52:44.356Z,66.52
2022-12-13T18:55:12.189Z,66.20
2022-12-13T18:57:40.132Z,66.37
2022-12-13T19:00:09.077Z,66.32
2022-12-13T19:02:39.207Z,67.06
2022-12-13T19:05:07.213Z,67.04
2022-12-13T19:07:35.046Z,66.95
2022-12-13T19:10:03.127Z,66.64
2022-12-13T19:12:32.104Z,67.03
2022-12-13T19:14:59.939Z,67.53
2022-12-13T19:17:27.796Z,68.19
2022-12-13T19:19:57.283Z,68.27
2022-12-13T19:22:25.131Z,68.23
2022-12-13T19:24:52.954Z,68.56
2022-12-13T19:27:20.773Z,68.68
2022-12-13T19:29:48.911Z,68.56
2022-12-13T19:32:16.819Z,68.60
2022-12-13T19:34:44.673Z,69.18
2022-12-13T19:37:14.028Z,69.24
2022-12-13T19:39:41.840Z,68.80
2022-12-13T19:42:10.233Z,68.99
2022-12-13T19:44:38.068Z,69.25
2022-12-13T19:47:06.552Z,69.22
2022-12-13T19:49:34.409Z,69.37
2022-12-13T19:52:02.577Z,69.34
2022-12-13T19:54:31.736Z,69.39
2022-12-13T19:57:26.717Z,69.02
2022-12-13T19:59:54.541Z,69.12
2022-12-13T20:02:22.380Z,69.15
2022-12-13T20:04:51.036Z,69.03
2022-12-13T20:07:19.134Z,69.49
2022-12-13T20:09:48.337Z,69.25
2022-12-13T20:12:16.274Z,69.79
2022-12-13T20:14:44.874Z,69.78
2022-12-13T20:17:12.759Z,69.71
2022-12-13T20:19:41.091Z,69.90
2022-12-13T20:22:08.902Z,69.75
2022-12-13T20:24:36.941Z,69.57
2022-12-13T20:27:06.554Z,69.98
2022-12-13T20:29:34.532Z,69.92
2022-12-13T20:32:02.508Z,70.01
2022-12-13T20:34:30.383Z,70.25
2022-12-13T20:36:58.407Z,69.95
2022-12-13T20:39:26.218Z,70.02
2022-12-13T20:41:54.014Z,69.69
2022-12-13T20:44:23.357Z,70.11
2022-12-13T20:46:51.251Z,70.53
2022-12-13T20:49:19.263Z,69.79
2022-12-13T20:51:47.148Z,70.55
2022-12-13T20:54:14.991Z,70.31
2022-12-13T20:56:42.907Z,70.49
2022-12-13T20:59:13.388Z,70.50
2022-12-13T21:01:45.006Z,70.18
2022-12-13T21:04:16.962Z,70.55
2022-12-13T21:06:44.859Z,70.60
2022-12-13T21:09:13.154Z,70.57
2022-12-13T21:11:43.237Z,70.21
2022-12-13T21:14:18.770Z,70.41
2022-12-13T21:16:51.472Z,70.48
2022-12-13T21:19:23.877Z,70.67
2022-12-13T21:21:52.711Z,70.30
2022-12-13T21:24:22.428Z,70.49
2022-12-13T21:26:51.122Z,70.35
2022-12-13T21:29:19.415Z,70.95
2022-12-13T21:31:49.821Z,70.79
2022-12-13T21:34:20.379Z,70.25
2022-12-13T21:36:49.679Z,70.59
2022-12-13T21:39:19.317Z,69.97
2022-12-13T21:41:47.609Z,70.37
2022-12-13T21:44:17.886Z,69.97
2022-12-13T21:49:35.316Z,69.93
2022-12-13T21:52:03.137Z,69.66
2022-12-13T21:54:30.980Z,70.38
2022-12-13T21:57:16.725Z,69.56
2022-12-13T21:59:44.522Z,69.96
2022-12-13T22:02:16.172Z,69.41
2022-12-13T22:04:47.369Z,69.24
2022-12-13T22:07:17.538Z,69.90
2022-12-13T22:09:46.538Z,69.40
2022-12-13T22:12:21.944Z,69.07
2022-12-13T22:14:50.196Z,69.75
2022-12-13T22:17:18.595Z,69.85
2022-12-13T22:19:48.383Z,69.13
2022-12-13T22:22:17.192Z,69.41
2022-12-13T22:24:49.896Z,69.73
2022-12-13T22:27:23.887Z,68.97
2022-12-13T22:29:52.386Z,69.25
2022-12-13T22:32:20.435Z,69.18
2022-12-13T22:34:49.835Z,69.49
2022-12-13T22:37:18.114Z,69.33
2022-12-13T22:39:45.937Z,69.40
2022-12-13T22:42:13.804Z,69.61
2022-12-13T22:44:41.568Z,69.65
2022-12-13T22:47:09.463Z,68.88
2022-12-13T22:49:38.098Z,69.35
2022-12-13T22:52:07.393Z,69.74
2022-12-13T22:54:35.803Z,69.38
2022-12-13T22:57:03.833Z,69.36
2022-12-13T22:59:32.052Z,69.21
2022-12-13T23:02:02.670Z,69.63
2022-12-13T23:04:33.710Z,69.34
2022-12-13T23:07:01.824Z,69.52
2022-12-13T23:09:31.038Z,69.72
2022-12-13T23:12:16.653Z,69.86
2022-12-13T23:14:44.465Z,69.52
2022-12-13T23:17:12.372Z,69.24
2022-12-13T23:19:50.234Z,69.35
2022-12-13T23:22:22.291Z,69.11
2022-12-13T23:24:52.092Z,69.28
2022-12-13T23:27:21.913Z,69.55
2022-12-13T23:29:49.797Z,69.43
2022-12-13T23:32:17.673Z,69.86
2022-12-13T23:34:45.596Z,69.95
2022-12-13T23:37:13.584Z,70.27
2022-12-13T23:39:41.517Z,70.15
2022-12-13T23:42:10.764Z,70.04
2022-12-13T23:44:38.993Z,69.94
2022-12-13T23:47:07.023Z,70.21
2022-12-13T23:49:35.010Z,69.85
2022-12-13T23:52:03.003Z,69.75
2022-12-13T23:54:30.792Z,69.79
2022-12-13T23:56:58.657Z,70.11
2022-12-13T23:59:28.631Z,69.93
